Time;durP1;ratioP1;P1;durP2;ratioP2;P2;SDS_P1;SDS_P2;PMS_P1;PMS_P2;Temp;Humidity;BMP_temperature;BMP_pressure;BME280_temperature;BME280_humidity;BME280_pressure;Samples;Min_cycle;Max_cycle;Signal;HPM_P1;HPM_P2
2024/02/01 00:01:15;;;;;;;7.53;5.40;;;7.50;47.20;;;;;;5045168;28;22095;-67
2024/02/01 00:03:41;;;;;;;7.93;5.57;;;7.40;47.80;;;;;;5042131;28;20209;-68
2024/02/01 00:06:08;;;;;;;6.13;5.53;;;7.60;47.80;;;;;;5050504;28;20724;-68
2024/02/01 00:08:34;;;;;;;9.23;5.97;;;7.60;48.00;;;;;;5050700;28;20711;-68
2024/02/01 00:11:01;;;;;;;6.43;5.53;;;7.40;47.80;;;;;;5050882;28;20233;-68
2024/02/01 00:13:27;;;;;;;7.53;6.10;;;7.50;48.20;;;;;;5049560;28;20729;-68
2024/02/01 00:15:54;;;;;;;8.70;6.27;;;7.60;48.50;;;;;;5050003;28;20210;-68
2024/02/01 00:18:20;;;;;;;6.60;5.90;;;7.60;48.60;;;;;;5042803;28;20279;-68
2024/02/01 00:20:47;;;;;;;7.77;6.70;;;7.60;49.00;;;;;;5050397;28;20210;-67
2024/02/01 00:23:13;;;;;;;6.80;6.03;;;7.60;49.40;;;;;;5042358;28;20233;-68
2024/02/01 00:25:40;;;;;;;6.70;6.07;;;7.50;49.70;;;;;;5048206;28;20567;-68
2024/02/01 00:28:07;;;;;;;6.97;6.27;;;7.60;49.90;;;;;;5050873;28;20210;-68
2024/02/01 00:30:33;;;;;;;7.23;6.40;;;7.60;50.10;;;;;;5047503;28;20234;-68
2024/02/01 00:32:59;;;;;;;7.40;6.00;;;7.50;50.50;;;;;;5061978;28;20252;-67
2024/02/01 00:35:26;;;;;;;7.87;7.07;;;7.50;50.70;;;;;;5051813;28;20213;-68
2024/02/01 00:37:52;;;;;;;9.53;7.13;;;7.50;50.80;;;;;;5050779;28;20261;-68
2024/02/01 00:40:19;;;;;;;7.10;6.40;;;7.50;50.90;;;;;;5044580;28;20667;-68
2024/02/01 00:42:46;;;;;;;8.60;6.63;;;7.40;51.40;;;;;;5048696;28;20719;-67
2024/02/01 00:45:12;;;;;;;6.67;5.97;;;7.40;51.90;;;;;;5044711;28;20209;-68
2024/02/01 00:47:39;;;;;;;7.37;6.37;;;7.60;51.60;;;;;;5047557;28;20217;-68
2024/02/01 00:50:05;;;;;;;7.67;6.57;;;7.60;51.70;;;;;;5050600;28;20742;-68
2024/02/01 00:52:32;;;;;;;7.77;6.90;;;7.50;52.10;;;;;;5045062;28;20260;-68
2024/02/01 00:54:58;;;;;;;9.30;6.97;;;7.40;52.30;;;;;;5050808;28;20270;-68
2024/02/01 00:57:25;;;;;;;8.00;7.20;;;7.40;52.30;;;;;;5042747;28;20213;-67
2024/02/01 00:59:51;;;;;;;8.00;6.73;;;7.30;52.70;;;;;;5043810;28;20206;-67
2024/02/01 01:02:18;;;;;;;8.03;6.40;;;7.30;52.90;;;;;;5053288;28;20274;-67
2024/02/01 01:04:44;;;;;;;7.53;6.73;;;7.40;52.80;;;;;;5051056;28;20205;-67
2024/02/01 01:07:11;;;;;;;7.43;6.63;;;7.40;52.70;;;;;;5046634;28;20279;-67
2024/02/01 01:09:37;;;;;;;8.70;7.23;;;7.40;52.80;;;;;;5054403;28;20209;-67
2024/02/01 01:12:04;;;;;;;9.13;6.70;;;7.30;53.30;;;;;;5049225;28;20257;-67
2024/02/01 01:14:31;;;;;;;11.20;7.20;;;7.10;53.70;;;;;;5047018;28;20638;-67
2024/02/01 01:16:57;;;;;;;7.97;7.17;;;7.20;53.90;;;;;;5044854;28;20281;-67
2024/02/01 01:19:24;;;;;;;8.30;6.80;;;7.20;53.70;;;;;;5050162;28;20617;-67
2024/02/01 01:21:51;;;;;;;8.57;7.53;;;7.20;54.00;;;;;;5049723;28;20247;-67
2024/02/01 01:24:18;;;;;;;10.57;7.37;;;7.00;54.30;;;;;;5044172;28;20270;-67
2024/02/01 01:26:44;;;;;;;9.73;7.83;;;7.10;54.90;;;;;;5053472;28;20695;-67
2024/02/01 01:29:11;;;;;;;13.23;8.03;;;7.10;55.20;;;;;;5038900;28;20208;-67
2024/02/01 01:31:37;;;;;;;10.70;7.87;;;7.10;55.30;;;;;;5051583;28;20256;-67
2024/02/01 01:34:04;;;;;;;10.50;8.23;;;7.00;55.50;;;;;;5041680;28;20209;-67
2024/02/01 01:36:30;;;;;;;8.30;7.43;;;7.10;55.70;;;;;;5048297;28;20679;-67
2024/02/01 01:38:58;;;;;;;8.90;8.00;;;7.00;55.90;;;;;;5048820;28;20263;-67
2024/02/01 01:41:24;;;;;;;11.57;8.77;;;7.10;56.50;;;;;;5049548;28;20216;-67
2024/02/01 01:43:50;;;;;;;9.00;7.90;;;7.00;56.40;;;;;;5052820;28;20215;-67
2024/02/01 01:46:17;;;;;;;11.17;9.57;;;7.20;56.50;;;;;;5051456;28;20263;-67
2024/02/01 01:48:44;;;;;;;10.03;8.97;;;7.30;56.20;;;;;;5045733;28;20591;-67
2024/02/01 01:51:10;;;;;;;11.93;8.73;;;7.40;56.30;;;;;;5051325;28;20231;-68
2024/02/01 01:53:37;;;;;;;13.20;9.73;;;7.50;56.20;;;;;;5052242;28;20278;-68
2024/02/01 01:56:03;;;;;;;11.23;9.70;;;7.60;56.50;;;;;;5039859;28;20240;-67
2024/02/01 01:58:30;;;;;;;11.60;9.80;;;7.60;56.40;;;;;;5048896;28;20255;-67
2024/02/01 02:00:56;;;;;;;14.80;10.63;;;7.70;56.80;;;;;;5050960;28;20258;-68
2024/02/01 02:03:23;;;;;;;11.87;10.23;;;7.70;56.40;;;;;;5052982;28;20205;-67
2024/02/01 02:05:49;;;;;;;12.37;9.97;;;7.80;56.40;;;;;;5052864;28;20605;-67
2024/02/01 02:08:16;;;;;;;12.40;10.43;;;7.80;56.30;;;;;;5052663;28;20274;-66
2024/02/01 02:10:42;;;;;;;11.70;10.47;;;7.80;56.60;;;;;;5051971;28;20206;-67
2024/02/01 02:13:09;;;;;;;12.10;10.80;;;7.80;57.00;;;;;;5042300;28;20204;-67
2024/02/01 02:15:36;;;;;;;13.73;12.00;;;7.70;56.90;;;;;;5043528;28;20274;-67
2024/02/01 02:18:09;;;;;;;14.93;12.00;;;7.70;57.60;;;;;;5052522;28;20227;-67
2024/02/01 02:20:36;;;;;;;13.77;11.43;;;7.90;57.10;;;;;;5048596;28;20216;-67
2024/02/01 02:23:03;;;;;;;14.13;11.17;;;7.90;57.10;;;;;;5052664;28;20240;-67
2024/02/01 02:25:29;;;;;;;14.10;11.10;;;7.70;57.30;;;;;;5052705;28;20208;-67
2024/02/01 02:27:56;;;;;;;16.43;11.37;;;7.80;57.80;;;;;;5052726;28;20223;-67
2024/02/01 02:30:22;;;;;;;12.63;11.10;;;7.80;57.80;;;;;;5038316;28;20204;-67
2024/02/01 02:32:49;;;;;;;13.70;10.80;;;8.10;57.30;;;;;;5043142;28;20591;-67
2024/02/01 02:35:16;;;;;;;15.37;12.07;;;8.10;57.40;;;;;;5043722;28;20259;-67
2024/02/01 02:37:43;;;;;;;14.23;10.43;;;8.00;57.60;;;;;;5052193;28;20232;-67
2024/02/01 02:40:09;;;;;;;11.87;10.60;;;8.10;57.60;;;;;;5050326;28;20205;-67
2024/02/01 02:42:36;;;;;;;15.70;10.77;;;8.20;57.50;;;;;;5052432;28;20234;-67
2024/02/01 02:45:02;;;;;;;12.30;10.50;;;8.20;57.60;;;;;;5052127;28;20278;-67
2024/02/01 02:47:29;;;;;;;12.70;10.53;;;8.00;58.50;;;;;;5042249;28;20404;-67
2024/02/01 02:49:55;;;;;;;12.53;10.57;;;8.10;58.50;;;;;;5050212;28;20208;-67
2024/02/01 02:52:22;;;;;;;14.73;9.87;;;8.20;58.50;;;;;;5045398;28;20294;-67
2024/02/01 02:54:48;;;;;;;13.07;9.97;;;8.30;58.30;;;;;;5051253;28;20217;-67
2024/02/01 02:57:15;;;;;;;13.53;10.03;;;8.30;58.30;;;;;;5052225;28;20285;-68
2024/02/01 02:59:42;;;;;;;13.10;9.40;;;8.30;59.20;;;;;;5043967;28;20627;-67
2024/02/01 03:02:08;;;;;;;11.87;9.03;;;8.30;58.70;;;;;;5051585;28;20260;-67
2024/02/01 03:04:35;;;;;;;12.53;10.10;;;8.30;58.70;;;;;;5049560;28;20646;-68
2024/02/01 03:07:01;;;;;;;13.47;9.87;;;8.30;58.90;;;;;;5044367;28;20274;-66
2024/02/01 03:09:28;;;;;;;10.97;9.10;;;8.30;59.30;;;;;;5041412;28;20204;-66
2024/02/01 03:11:55;;;;;;;10.13;8.80;;;8.40;58.90;;;;;;5049898;28;20264;-66
2024/02/01 03:14:21;;;;;;;11.67;9.10;;;8.30;58.90;;;;;;5044838;28;20294;-67
2024/02/01 03:16:48;;;;;;;9.73;8.63;;;8.40;59.00;;;;;;5051962;28;20208;-66
2024/02/01 03:19:14;;;;;;;9.33;8.43;;;8.40;59.00;;;;;;5051468;28;20568;-67
2024/02/01 03:21:41;;;;;;;11.67;8.93;;;8.50;58.80;;;;;;5049238;28;20706;-66
2024/02/01 03:24:08;;;;;;;10.33;8.53;;;8.50;58.70;;;;;;5051364;28;20596;-65
2024/02/01 03:26:35;;;;;;;10.13;8.87;;;8.50;59.10;;;;;;5044694;28;20211;-66
2024/02/01 03:29:02;;;;;;;11.97;7.97;;;8.50;59.00;;;;;;5045110;28;20295;-66
2024/02/01 03:31:33;;;;;;;10.57;8.17;;;8.50;59.20;;;;;;5050560;28;20237;-66
2024/02/01 03:34:01;;;;;;;10.17;8.20;;;8.50;59.00;;;;;;5045679;28;20213;-66
2024/02/01 03:36:28;;;;;;;9.47;7.77;;;8.50;59.00;;;;;;5050835;28;20209;-67
2024/02/01 03:38:54;;;;;;;8.50;7.57;;;8.50;59.20;;;;;;5050695;28;20209;-66
2024/02/01 03:41:21;;;;;;;9.50;7.67;;;8.50;59.20;;;;;;5051346;28;20225;-67
2024/02/01 03:43:49;;;;;;;7.57;6.70;;;8.50;59.50;;;;;;5050908;28;20202;-66
2024/02/01 03:46:16;;;;;;;10.37;6.50;;;8.60;59.20;;;;;;5051580;28;20227;-66
2024/02/01 03:48:43;;;;;;;8.10;6.57;;;8.60;59.20;;;;;;5050890;28;20205;-66
2024/02/01 03:51:10;;;;;;;12.90;7.30;;;8.60;59.20;;;;;;5042106;28;20239;-67
2024/02/01 03:53:36;;;;;;;8.50;6.13;;;8.60;59.00;;;;;;5044624;28;20256;-66
2024/02/01 03:56:03;;;;;;;8.20;6.27;;;8.70;58.90;;;;;;5042942;28;20279;-66
2024/02/01 03:58:32;;;;;;;8.60;6.60;;;8.60;59.20;;;;;;5045373;28;20262;-66
2024/02/01 04:01:01;;;;;;;8.40;7.00;;;8.70;59.20;;;;;;5050876;28;20619;-67
2024/02/01 04:03:27;;;;;;;8.17;5.67;;;8.70;58.90;;;;;;5050930;28;20243;-66
2024/02/01 04:06:00;;;;;;;9.17;5.67;;;8.70;59.00;;;;;;5049454;28;20761;-66
2024/02/01 04:08:27;;;;;;;8.13;5.60;;;8.70;58.90;;;;;;5051248;28;20213;-66
2024/02/01 04:10:54;;;;;;;8.33;5.73;;;8.70;58.90;;;;;;5048152;28;20261;-66
2024/02/01 04:13:20;;;;;;;6.63;5.33;;;8.70;58.80;;;;;;5042992;28;20294;-67
2024/02/01 04:15:47;;;;;;;6.77;5.80;;;8.70;58.90;;;;;;5037654;28;20256;-66
2024/02/01 04:18:13;;;;;;;7.27;5.53;;;8.70;58.90;;;;;;5050546;28;20214;-67
2024/02/01 04:20:41;;;;;;;11.80;6.37;;;8.70;59.00;;;;;;5051118;28;20213;-67
2024/02/01 04:23:08;;;;;;;7.77;5.47;;;8.70;58.80;;;;;;5050770;28;20299;-66
2024/02/01 04:25:34;;;;;;;6.97;5.17;;;8.70;59.10;;;;;;5050179;28;20225;-67
2024/02/01 04:28:01;;;;;;;8.10;5.20;;;8.70;59.00;;;;;;5046880;28;20206;-67
2024/02/01 04:30:28;;;;;;;7.13;4.80;;;8.70;59.00;;;;;;5044514;28;20209;-66
2024/02/01 04:32:55;;;;;;;6.90;5.23;;;8.80;58.80;;;;;;5042050;28;20600;-67
2024/02/01 04:35:21;;;;;;;10.03;4.97;;;8.70;59.00;;;;;;5052622;28;20376;-66
2024/02/01 04:37:52;;;;;;;8.63;5.13;;;8.80;58.80;;;;;;5054431;28;20212;-66
2024/02/01 04:40:20;;;;;;;6.07;5.17;;;8.70;58.90;;;;;;5052790;28;20214;-66
2024/02/01 04:42:51;;;;;;;6.73;5.07;;;8.70;59.20;;;;;;5054701;28;20759;-66
2024/02/01 04:45:18;;;;;;;8.30;4.87;;;8.60;59.60;;;;;;5051528;28;20209;-66
2024/02/01 04:47:44;;;;;;;7.43;5.27;;;8.60;59.30;;;;;;5053392;28;20560;-67
2024/02/01 04:50:11;;;;;;;6.93;5.27;;;8.70;59.20;;;;;;5043828;28;20684;-66
2024/02/01 04:52:37;;;;;;;7.97;5.23;;;8.80;59.00;;;;;;5052368;28;20283;-66
2024/02/01 04:55:04;;;;;;;8.83;5.60;;;8.80;58.90;;;;;;5053997;28;20279;-66
2024/02/01 04:57:31;;;;;;;6.30;5.30;;;8.80;59.10;;;;;;5043898;28;20680;-66
2024/02/01 04:59:57;;;;;;;7.57;5.30;;;8.70;59.20;;;;;;5045050;28;20629;-66
2024/02/01 05:02:24;;;;;;;7.87;5.57;;;8.70;59.40;;;;;;5050904;28;20708;-67
2024/02/01 05:04:50;;;;;;;8.97;5.73;;;8.70;59.30;;;;;;5054014;28;20263;-66
2024/02/01 05:07:17;;;;;;;6.77;5.33;;;8.60;59.60;;;;;;5053742;28;20205;-66
2024/02/01 05:09:43;;;;;;;9.57;5.50;;;8.70;59.30;;;;;;5053728;28;20629;-66
2024/02/01 05:12:10;;;;;;;7.63;5.40;;;8.80;59.00;;;;;;5053376;28;20704;-67
2024/02/01 05:14:36;;;;;;;7.90;4.83;;;8.80;59.10;;;;;;5045165;28;20210;-66
2024/02/01 05:17:03;;;;;;;7.77;6.00;;;8.70;59.20;;;;;;5052911;28;20858;-66
2024/02/01 05:19:30;;;;;;;7.77;5.60;;;8.70;58.90;;;;;;5050037;28;20205;-67
2024/02/01 05:21:56;;;;;;;9.53;5.80;;;8.70;59.10;;;;;;5053769;28;20767;-66
2024/02/01 05:24:23;;;;;;;7.27;5.57;;;8.70;59.00;;;;;;5053765;28;20237;-66
2024/02/01 05:26:50;;;;;;;7.20;5.73;;;8.70;59.20;;;;;;5053830;28;20617;-66
2024/02/01 05:29:17;;;;;;;9.03;5.77;;;8.70;59.30;;;;;;5053696;28;20296;-66
2024/02/01 05:31:47;;;;;;;6.87;5.37;;;8.70;59.00;;;;;;5041400;28;20221;-67
2024/02/01 05:34:14;;;;;;;10.87;6.20;;;8.70;58.90;;;;;;5029545;28;20284;-67
2024/02/01 05:36:40;;;;;;;9.87;5.53;;;8.70;58.90;;;;;;5052534;28;20221;-66
2024/02/01 05:39:24;;;;;;;8.87;5.80;;;8.60;59.20;;;;;;5039442;28;20241;-66
2024/02/01 05:41:50;;;;;;;10.43;5.63;;;8.60;59.20;;;;;;5048557;28;20310;-66
2024/02/01 05:44:17;;;;;;;7.53;5.33;;;8.70;59.20;;;;;;5052626;28;20237;-66
2024/02/01 05:46:43;;;;;;;7.50;5.80;;;8.60;59.20;;;;;;5053128;28;20213;-66
2024/02/01 05:49:10;;;;;;;6.83;5.10;;;8.70;59.10;;;;;;5047210;28;20245;-66
2024/02/01 05:51:36;;;;;;;6.63;5.47;;;8.70;59.00;;;;;;5047589;28;20234;-67
2024/02/01 05:54:03;;;;;;;8.00;5.43;;;8.70;58.90;;;;;;5051869;28;20264;-66
2024/02/01 05:56:30;;;;;;;7.50;5.40;;;8.70;59.00;;;;;;5048215;28;20217;-66
2024/02/01 05:58:56;;;;;;;7.83;5.20;;;8.70;59.00;;;;;;5045032;28;20263;-66
2024/02/01 06:01:23;;;;;;;6.83;4.93;;;8.70;59.10;;;;;;5051954;28;20788;-66
2024/02/01 06:03:50;;;;;;;5.73;4.87;;;8.70;59.00;;;;;;5053049;28;20216;-66
2024/02/01 06:06:17;;;;;;;10.00;5.00;;;8.70;58.80;;;;;;5052495;28;20216;-66
2024/02/01 06:08:43;;;;;;;7.97;5.30;;;8.80;58.50;;;;;;5053020;28;20232;-66
2024/02/01 06:11:10;;;;;;;8.50;5.67;;;8.70;58.50;;;;;;5051720;28;20225;-67
2024/02/01 06:13:36;;;;;;;8.13;5.17;;;8.80;58.20;;;;;;5044781;28;20229;-66
2024/02/01 06:16:03;;;;;;;8.37;5.57;;;8.80;58.30;;;;;;5052319;28;20632;-66
2024/02/01 06:18:29;;;;;;;9.30;5.10;;;8.90;57.90;;;;;;5052393;28;20667;-66
2024/02/01 06:20:56;;;;;;;7.47;5.13;;;8.90;57.90;;;;;;5050878;28;20202;-66
2024/02/01 06:23:22;;;;;;;9.27;5.30;;;8.80;57.80;;;;;;5052947;28;20229;-66
2024/02/01 06:25:49;;;;;;;9.37;6.07;;;8.80;58.00;;;;;;5052005;28;20271;-66
2024/02/01 06:28:16;;;;;;;8.13;4.90;;;8.90;57.90;;;;;;5039562;28;20229;-67
2024/02/01 06:30:42;;;;;;;9.57;6.03;;;8.90;57.90;;;;;;5043223;28;20198;-66
2024/02/01 06:33:09;;;;;;;7.40;5.20;;;8.90;57.90;;;;;;5038639;28;20712;-66
2024/02/01 06:35:40;;;;;;;8.53;5.27;;;8.90;57.90;;;;;;5042069;28;20206;-66
2024/02/01 06:38:15;;;;;;;7.20;5.80;;;8.90;57.90;;;;;;5035092;28;20216;-66
2024/02/01 06:41:06;;;;;;;7.20;4.90;;;8.90;57.90;;;;;;5013395;28;20605;-66
2024/02/01 06:43:51;;;;;;;7.47;5.37;;;9.00;58.00;;;;;;5043264;28;20205;-66
2024/02/01 06:46:23;;;;;;;6.37;5.23;;;8.90;57.90;;;;;;5049173;28;20205;-65
2024/02/01 06:49:11;;;;;;;7.37;5.27;;;8.90;57.90;;;;;;5045884;28;20232;-66
2024/02/01 06:51:40;;;;;;;7.20;5.30;;;9.00;58.00;;;;;;5056279;28;20315;-68
2024/02/01 06:54:17;;;;;;;6.43;5.67;;;9.00;58.00;;;;;;5049125;28;20805;-65
2024/02/01 06:56:48;;;;;;;8.10;5.43;;;9.00;58.00;;;;;;5042843;28;20207;-67
2024/02/01 06:59:30;;;;;;;6.93;5.40;;;9.00;58.60;;;;;;5039067;28;20233;-65
2024/02/01 07:02:06;;;;;;;9.80;5.80;;;9.10;57.80;;;;;;5048381;28;20236;-66
2024/02/01 07:04:41;;;;;;;8.83;5.50;;;9.10;58.00;;;;;;5039834;28;20205;-66
2024/02/01 07:07:18;;;;;;;7.37;5.80;;;9.00;58.00;;;;;;5043725;28;20215;-66
2024/02/01 07:09:57;;;;;;;7.07;5.63;;;9.00;58.00;;;;;;5051191;28;20678;-66
2024/02/01 07:12:39;;;;;;;9.33;5.73;;;9.00;57.90;;;;;;5042997;28;20241;-63
2024/02/01 07:15:29;;;;;;;9.50;5.37;;;9.10;57.90;;;;;;5034396;28;20221;-65
2024/02/01 07:17:59;;;;;;;8.97;5.53;;;9.10;58.10;;;;;;5047048;28;20224;-66
2024/02/01 07:20:35;;;;;;;11.80;6.13;;;9.20;58.20;;;;;;5047245;28;20209;-65
2024/02/01 07:23:03;;;;;;;5.87;5.27;;;9.20;57.80;;;;;;5051417;28;20218;-66
2024/02/01 07:25:47;;;;;;;9.13;6.00;;;9.10;57.60;;;;;;5045943;28;20201;-66
2024/02/01 07:58:24;;;;;;;6.70;5.97;;;9.10;57.70;;;;;;5040600;28;20622;-64
2024/02/01 08:00:53;;;;;;;7.77;5.63;;;9.10;58.60;;;;;;5048097;28;20209;-64
2024/02/01 08:03:32;;;;;;;8.10;6.20;;;9.20;59.00;;;;;;5057593;28;20229;-64
2024/02/01 08:08:43;;;;;;;9.70;6.07;;;9.00;61.30;;;;;;5044622;28;20189;-64
2024/02/01 08:11:16;;;;;;;6.77;5.90;;;9.00;61.60;;;;;;5040683;28;20225;-64
2024/02/01 08:13:48;;;;;;;9.10;6.17;;;9.00;63.00;;;;;;5054230;28;20221;-64
2024/02/01 08:16:17;;;;;;;9.53;6.23;;;9.00;62.60;;;;;;5057628;28;20629;-64
2024/02/01 08:18:43;;;;;;;10.70;6.77;;;8.90;62.90;;;;;;5051758;28;20625;-67
2024/02/01 08:21:14;;;;;;;8.63;6.87;;;8.80;63.90;;;;;;5054453;28;20240;-64
2024/02/01 08:23:40;;;;;;;11.23;6.83;;;8.80;65.00;;;;;;5056591;28;20287;-64
2024/02/01 08:26:07;;;;;;;12.10;6.93;;;8.70;65.60;;;;;;5054039;28;20271;-64
2024/02/01 08:28:33;;;;;;;9.20;6.70;;;8.70;67.60;;;;;;5039629;28;20210;-64
2024/02/01 08:31:02;;;;;;;9.60;7.70;;;8.70;67.20;;;;;;5046735;28;20234;-64
2024/02/01 08:33:29;;;;;;;9.63;7.40;;;8.70;66.90;;;;;;5051204;28;20687;-63
2024/02/01 08:35:55;;;;;;;8.90;6.53;;;8.70;67.90;;;;;;5037817;28;20233;-64
2024/02/01 08:38:22;;;;;;;9.77;7.50;;;8.70;67.20;;;;;;5044894;28;20229;-65
2024/02/01 08:40:48;;;;;;;10.57;7.27;;;8.70;68.20;;;;;;5050080;28;20671;-65
2024/02/01 08:43:15;;;;;;;8.60;7.07;;;8.70;68.20;;;;;;5051548;28;20213;-64
2024/02/01 08:45:44;;;;;;;10.83;7.90;;;8.60;69.20;;;;;;5055258;28;20273;-64
2024/02/01 08:48:10;;;;;;;12.17;7.37;;;8.60;69.30;;;;;;5046126;28;20244;-64
2024/02/01 08:50:42;;;;;;;10.30;8.43;;;8.60;70.20;;;;;;5038430;28;20209;-64
2024/02/01 08:53:09;;;;;;;10.97;8.60;;;8.50;70.70;;;;;;5042124;28;20279;-64
2024/02/01 08:55:35;;;;;;;10.73;8.57;;;8.50;71.80;;;;;;5026068;28;20763;-64
2024/02/01 08:58:08;;;;;;;9.33;8.07;;;8.70;72.10;;;;;;5045165;28;20210;-65
2024/02/01 09:00:34;;;;;;;12.67;8.40;;;8.60;71.40;;;;;;5042400;28;20217;-65
2024/02/01 09:03:10;;;;;;;9.87;8.17;;;8.60;72.40;;;;;;5041957;28;20215;-65
2024/02/01 09:05:37;;;;;;;13.00;8.77;;;8.50;72.40;;;;;;5051987;28;20706;-65
2024/02/01 09:08:04;;;;;;;11.23;8.50;;;8.60;72.90;;;;;;5053698;28;20206;-65
2024/02/01 09:10:31;;;;;;;9.83;8.37;;;8.60;72.80;;;;;;5058034;28;20205;-65
2024/02/01 09:12:57;;;;;;;10.57;9.13;;;8.60;72.70;;;;;;5052546;28;20286;-66
2024/02/01 09:15:24;;;;;;;11.40;9.30;;;8.60;72.10;;;;;;5045762;28;20269;-66
2024/02/01 09:17:51;;;;;;;10.33;7.77;;;8.60;72.80;;;;;;5043011;28;20217;-66
2024/02/01 09:20:18;;;;;;;9.63;8.67;;;8.60;71.50;;;;;;5044070;28;20217;-66
2024/02/01 09:22:45;;;;;;;10.80;8.00;;;8.60;71.10;;;;;;5050468;28;20226;-66
2024/02/01 09:25:12;;;;;;;10.23;8.20;;;8.70;71.10;;;;;;5049393;28;20262;-66
2024/02/01 09:27:39;;;;;;;12.33;8.60;;;8.70;71.00;;;;;;5049733;28;20206;-67
2024/02/01 09:30:06;;;;;;;9.47;7.27;;;8.70;70.60;;;;;;5054042;28;20220;-66
2024/02/01 09:32:33;;;;;;;12.43;7.80;;;8.80;70.30;;;;;;5056640;28;20225;-67
2024/02/01 09:34:59;;;;;;;10.07;7.30;;;8.70;70.50;;;;;;5050882;28;20243;-66
2024/02/01 09:37:26;;;;;;;8.20;6.90;;;8.70;71.00;;;;;;5031454;28;20202;-66
2024/02/01 09:39:53;;;;;;;12.10;7.83;;;8.70;71.20;;;;;;5052588;28;20209;-66
2024/02/01 09:42:19;;;;;;;8.93;7.43;;;8.70;70.30;;;;;;5049155;28;20222;-66
2024/02/01 09:44:46;;;;;;;9.20;7.17;;;8.70;70.90;;;;;;5044258;28;20218;-66
2024/02/01 09:47:13;;;;;;;10.60;7.87;;;8.70;70.60;;;;;;5053457;28;20268;-66
2024/02/01 09:49:39;;;;;;;9.33;7.37;;;8.60;70.90;;;;;;5048948;28;20233;-66
2024/02/01 09:52:09;;;;;;;9.10;7.03;;;8.60;70.80;;;;;;5054166;28;20226;-66
2024/02/01 09:54:36;;;;;;;7.93;6.50;;;8.60;70.80;;;;;;5059171;28;20236;-66
2024/02/01 09:57:03;;;;;;;9.77;6.80;;;8.70;69.60;;;;;;5043435;28;20252;-66
2024/02/01 09:59:29;;;;;;;7.77;6.80;;;8.40;70.10;;;;;;5054242;28;20216;-66
2024/02/01 10:01:56;;;;;;;9.83;7.07;;;8.50;70.40;;;;;;5053704;28;20225;-68
2024/02/01 10:04:22;;;;;;;7.43;6.60;;;8.60;70.00;;;;;;5048745;28;20739;-68
2024/02/01 10:06:49;;;;;;;8.27;6.53;;;8.40;70.00;;;;;;5056484;28;20236;-67
2024/02/01 10:09:22;;;;;;;7.80;7.00;;;8.50;70.30;;;;;;5048633;28;20214;-67
2024/02/01 10:11:48;;;;;;;7.73;6.37;;;8.60;69.80;;;;;;5051097;28;20309;-67
2024/02/01 10:14:15;;;;;;;8.67;6.80;;;8.40;70.30;;;;;;5053785;28;20227;-67
2024/02/01 10:16:41;;;;;;;9.07;6.77;;;8.50;70.20;;;;;;5045570;28;20675;-67
2024/02/01 10:19:09;;;;;;;8.13;6.67;;;8.40;70.70;;;;;;5053368;28;20346;-67
2024/02/01 10:21:36;;;;;;;8.37;7.23;;;8.40;71.20;;;;;;5052487;28;20221;-67
2024/02/01 10:24:04;;;;;;;8.80;6.93;;;8.40;71.20;;;;;;5056873;28;20304;-66
2024/02/01 10:26:31;;;;;;;8.03;6.77;;;8.40;70.60;;;;;;5049681;28;20220;-67
2024/02/01 10:28:57;;;;;;;9.03;6.63;;;8.40;71.40;;;;;;5051067;28;20703;-67
2024/02/01 10:31:24;;;;;;;9.67;6.77;;;8.50;71.20;;;;;;5051306;28;20645;-66
2024/02/01 10:33:50;;;;;;;10.70;7.20;;;8.40;71.90;;;;;;5038110;28;20760;-71
2024/02/01 10:36:20;;;;;;;8.27;7.10;;;8.50;72.40;;;;;;5050248;28;20723;-67
2024/02/01 10:38:47;;;;;;;7.93;7.13;;;8.40;72.00;;;;;;5055809;28;20254;-67
2024/02/01 10:41:16;;;;;;;8.43;6.97;;;8.30;72.30;;;;;;5044033;28;20651;-67
2024/02/01 10:43:44;;;;;;;8.33;7.30;;;8.30;72.60;;;;;;5040396;28;20657;-66
2024/02/01 10:46:10;;;;;;;10.63;7.53;;;8.40;73.00;;;;;;5052154;28;20209;-66
2024/02/01 10:48:37;;;;;;;8.77;7.77;;;8.30;73.20;;;;;;5053411;28;20259;-66
2024/02/01 10:51:09;;;;;;;8.40;7.00;;;8.40;72.30;;;;;;5048370;28;20238;-66
2024/02/01 10:53:43;;;;;;;9.87;7.27;;;8.40;72.20;;;;;;5081403;28;20981;-65
2024/02/01 10:56:13;;;;;;;9.17;7.47;;;8.40;72.40;;;;;;5076874;28;20666;-65
2024/02/01 10:58:40;;;;;;;8.73;7.70;;;8.50;72.50;;;;;;5065403;28;20262;-64
2024/02/01 11:01:07;;;;;;;8.57;7.20;;;8.40;72.70;;;;;;5072408;28;20287;-64
2024/02/01 11:03:33;;;;;;;8.43;6.93;;;8.40;73.40;;;;;;5066537;28;20214;-65
2024/02/01 11:06:00;;;;;;;8.53;7.17;;;8.50;74.00;;;;;;5060268;28;20258;-65
2024/02/01 11:08:26;;;;;;;9.17;7.70;;;8.50;73.30;;;;;;5059741;28;20244;-65
2024/02/01 11:10:53;;;;;;;9.67;7.43;;;8.50;73.40;;;;;;5079530;28;20207;-66
2024/02/01 11:13:20;;;;;;;7.57;6.77;;;8.50;73.20;;;;;;5067819;28;20262;-64
2024/02/01 11:15:46;;;;;;;8.20;7.40;;;8.50;74.00;;;;;;5064709;28;20668;-64
2024/02/01 11:18:13;;;;;;;8.40;7.27;;;8.50;74.50;;;;;;5065075;28;20266;-65
2024/02/01 11:20:39;;;;;;;10.70;7.57;;;8.60;73.50;;;;;;5064302;28;20205;-65
2024/02/01 11:23:06;;;;;;;10.50;8.33;;;8.60;73.90;;;;;;5054589;28;20209;-65
2024/02/01 11:25:33;;;;;;;8.23;7.43;;;8.50;73.80;;;;;;5051835;28;20300;-65
2024/02/01 11:27:59;;;;;;;8.57;7.07;;;8.60;73.60;;;;;;5059307;28;20263;-64
2024/02/01 11:30:31;;;;;;;7.67;6.87;;;8.70;73.40;;;;;;5058669;28;20319;-65
2024/02/01 11:32:57;;;;;;;8.67;7.70;;;8.50;72.90;;;;;;5053887;28;20227;-65
2024/02/01 11:35:24;;;;;;;9.03;7.23;;;8.50;74.30;;;;;;5059700;28;20206;-65
2024/02/01 11:37:50;;;;;;;8.23;6.83;;;8.50;74.00;;;;;;5061462;28;20239;-65
2024/02/01 11:40:18;;;;;;;9.90;7.47;;;8.50;74.50;;;;;;5064719;28;20292;-65
2024/02/01 11:42:45;;;;;;;7.93;6.73;;;8.50;74.80;;;;;;5056322;28;20802;-65
2024/02/01 11:45:11;;;;;;;8.43;6.43;;;8.50;74.70;;;;;;5059214;28;20244;-65
2024/02/01 11:47:39;;;;;;;8.10;6.87;;;8.30;75.50;;;;;;5059901;28;20609;-65
2024/02/01 11:50:06;;;;;;;9.50;7.37;;;8.40;76.60;;;;;;5057522;28;20202;-64
2024/02/01 11:52:32;;;;;;;9.10;6.50;;;8.50;75.70;;;;;;5062847;28;20244;-64
2024/02/01 11:54:59;;;;;;;9.13;6.70;;;8.50;75.70;;;;;;5057226;28;20208;-64
2024/02/01 11:57:26;;;;;;;8.00;6.77;;;8.50;75.90;;;;;;5061761;28;20236;-65
2024/02/01 11:59:55;;;;;;;9.43;7.10;;;8.30;75.60;;;;;;5054510;28;20202;-65
2024/02/01 12:02:22;;;;;;;7.30;6.43;;;8.30;77.20;;;;;;5044818;28;20722;-64
2024/02/01 12:04:48;;;;;;;7.20;6.40;;;8.30;78.00;;;;;;5045741;28;20213;-65
2024/02/01 12:07:16;;;;;;;7.87;6.57;;;8.30;78.00;;;;;;5045724;28;20228;-65
2024/02/01 12:09:43;;;;;;;7.20;6.03;;;8.30;77.80;;;;;;5046051;28;20296;-64
2024/02/01 12:12:13;;;;;;;8.20;6.73;;;8.20;78.80;;;;;;5039530;28;20279;-65
2024/02/01 12:14:40;;;;;;;7.10;6.40;;;8.30;77.40;;;;;;5042215;28;20230;-64
2024/02/01 12:17:06;;;;;;;6.97;6.27;;;8.40;77.10;;;;;;5045962;28;20220;-64
2024/02/01 12:19:37;;;;;;;6.67;6.00;;;8.40;77.50;;;;;;5046359;28;20299;-64
2024/02/01 12:22:04;;;;;;;6.23;5.63;;;8.40;77.00;;;;;;5047154;28;20289;-65
2024/02/01 12:24:31;;;;;;;8.13;5.80;;;8.40;77.20;;;;;;5047921;28;20202;-64
2024/02/01 12:26:58;;;;;;;6.23;5.50;;;8.40;76.60;;;;;;5053527;28;20568;-64
2024/02/01 12:29:24;;;;;;;6.73;5.90;;;8.50;76.00;;;;;;5058350;28;20201;-64
2024/02/01 12:31:51;;;;;;;6.37;5.60;;;8.30;76.30;;;;;;5056082;28;20251;-64
2024/02/01 12:34:19;;;;;;;6.27;5.63;;;8.50;75.80;;;;;;5039307;28;20247;-63
2024/02/01 12:36:48;;;;;;;9.27;6.10;;;8.50;75.50;;;;;;5050580;28;20208;-64
2024/02/01 12:39:14;;;;;;;7.83;5.67;;;8.40;75.00;;;;;;5050205;28;20210;-65
2024/02/01 12:41:41;;;;;;;5.90;5.23;;;8.50;75.70;;;;;;5059980;28;20310;-65
2024/02/01 12:44:08;;;;;;;6.40;5.50;;;8.50;75.70;;;;;;5051625;28;20228;-64
2024/02/01 12:46:35;;;;;;;5.63;5.03;;;8.50;74.70;;;;;;5053082;28;20316;-64
2024/02/01 12:49:02;;;;;;;6.47;5.57;;;8.40;75.60;;;;;;5052763;28;20209;-65
2024/02/01 12:51:29;;;;;;;7.47;5.33;;;8.50;75.50;;;;;;5052389;28;20240;-65
2024/02/01 12:53:56;;;;;;;6.03;5.40;;;8.40;75.40;;;;;;5044391;28;20232;-64
2024/02/01 12:56:23;;;;;;;6.43;5.67;;;8.50;75.10;;;;;;5048973;28;20200;-66
2024/02/01 12:58:49;;;;;;;6.70;6.10;;;8.50;75.40;;;;;;5047948;28;20296;-64
2024/02/01 13:01:16;;;;;;;5.70;5.00;;;8.50;75.70;;;;;;5050842;28;20228;-65
2024/02/01 13:03:42;;;;;;;6.43;5.83;;;8.50;75.80;;;;;;5046386;28;20217;-64
2024/02/01 13:06:10;;;;;;;6.40;5.00;;;8.50;75.70;;;;;;5050183;28;20251;-64
2024/02/01 13:08:40;;;;;;;5.83;5.30;;;8.40;75.60;;;;;;5053106;28;20217;-64
2024/02/01 13:11:07;;;;;;;7.70;5.73;;;8.40;75.60;;;;;;5046983;28;20236;-64
2024/02/01 13:13:33;;;;;;;6.00;5.40;;;8.50;75.10;;;;;;5050256;28;20225;-64
2024/02/01 13:16:00;;;;;;;7.73;5.33;;;8.50;74.90;;;;;;5049668;28;20241;-64
2024/02/01 13:18:26;;;;;;;5.93;5.10;;;8.40;74.70;;;;;;5051765;28;20769;-64
2024/02/01 13:20:55;;;;;;;6.40;5.70;;;8.50;75.30;;;;;;5049536;28;20235;-65
2024/02/01 13:23:22;;;;;;;6.40;5.80;;;8.40;75.60;;;;;;5059805;28;20208;-63
2024/02/01 13:25:49;;;;;;;6.17;5.63;;;8.40;75.60;;;;;;5052178;28;20227;-66
2024/02/01 13:28:16;;;;;;;6.50;5.10;;;8.50;76.10;;;;;;5043436;28;20213;-67